Time;durP1;ratioP1;P1;durP2;ratioP2;P2;SDS_P1;SDS_P2;PMS_P1;PMS_P2;Temp;Humidity;BMP_temperature;BMP_pressure;BME280_temperature;BME280_humidity;BME280_pressure;Samples;Min_cycle;Max_cycle;Signal;HPM_P1;HPM_P2
2021/07/31 00:02:23;;;;;;;12.88;7.45;;;;;;;21.93;90.88;97365.41;5052341;28;20071;-79
2021/07/31 00:04:50;;;;;;;8.50;7.60;;;;;;;21.93;91.02;97363.38;5052319;28;20025;-78
2021/07/31 00:07:18;;;;;;;9.43;8.43;;;;;;;21.79;91.87;97366.03;5053486;28;20025;-78
2021/07/31 00:09:44;;;;;;;10.32;9.23;;;;;;;21.78;92.37;97364.41;5053187;28;20113;-80
2021/07/31 00:12:09;;;;;;;9.30;8.35;;;;;;;21.65;93.18;97365.88;5054871;28;20123;-79
2021/07/31 00:14:35;;;;;;;10.05;9.05;;;;;;;21.61;93.30;97371.41;5053148;28;20037;-79
2021/07/31 00:17:02;;;;;;;10.13;9.05;;;;;;;21.59;93.41;97365.41;5053210;28;20025;-82
2021/07/31 00:19:27;;;;;;;13.88;8.43;;;;;;;21.55;92.83;97372.91;5051985;28;20025;-79
2021/07/31 00:21:53;;;;;;;9.98;8.93;;;;;;;21.59;91.69;97359.84;5051460;28;20500;-78
2021/07/31 00:24:18;;;;;;;11.73;8.32;;;;;;;21.71;91.70;97367.13;5051870;28;20028;-78
2021/07/31 00:26:44;;;;;;;15.57;8.88;;;;;;;21.66;91.51;97370.25;5052658;28;20473;-78
2021/07/31 00:29:09;;;;;;;11.20;8.70;;;;;;;21.56;92.05;97366.19;5052437;28;20029;-79
2021/07/31 00:31:34;;;;;;;11.00;8.02;;;;;;;21.56;92.44;97371.75;5052614;28;20041;-79
2021/07/31 00:34:00;;;;;;;13.68;10.20;;;;;;;21.60;92.33;97367.03;5052434;28;20025;-79
2021/07/31 00:36:25;;;;;;;9.00;8.07;;;;;;;21.58;92.61;97376.94;5052633;28;20024;-79
2021/07/31 00:38:51;;;;;;;11.90;8.00;;;;;;;21.62;93.08;97386.13;5053038;28;20044;-79
2021/07/31 00:41:16;;;;;;;15.77;10.90;;;;;;;21.58;93.30;97388.09;5052358;28;20039;-79
2021/07/31 00:43:42;;;;;;;12.82;9.43;;;;;;;21.56;93.31;97387.66;5052700;28;20033;-80
2021/07/31 00:46:08;;;;;;;10.73;8.65;;;;;;;21.59;93.48;97403.59;5052208;28;20044;-79
2021/07/31 00:48:34;;;;;;;11.00;8.98;;;;;;;21.72;92.50;97394.59;5052657;28;20021;-78
2021/07/31 00:50:59;;;;;;;10.57;8.85;;;;;;;21.78;91.76;97395.03;5052847;28;20021;-79
2021/07/31 00:53:25;;;;;;;12.00;9.13;;;;;;;21.74;91.86;97394.22;5052141;28;20021;-79
2021/07/31 00:55:51;;;;;;;10.60;8.60;;;;;;;21.76;91.60;97397.41;5051655;28;20060;-79
2021/07/31 00:58:17;;;;;;;10.68;7.88;;;;;;;21.83;91.13;97394.72;5052378;28;20029;-80
2021/07/31 01:00:42;;;;;;;8.50;7.70;;;;;;;21.76;90.67;97403.78;5051994;28;20032;-79
2021/07/31 01:03:08;;;;;;;10.48;8.15;;;;;;;21.75;91.16;97409.72;5052306;28;20401;-80
2021/07/31 01:05:34;;;;;;;10.35;7.90;;;;;;;21.66;91.52;97398.91;5053305;28;20466;-79
2021/07/31 01:08:00;;;;;;;7.90;6.70;;;;;;;21.65;90.40;97402.88;5051800;28;20532;-78
2021/07/31 01:10:25;;;;;;;9.13;7.38;;;;;;;21.62;90.09;97403.63;5052420;28;20119;-79
2021/07/31 01:12:53;;;;;;;12.07;7.82;;;;;;;21.71;90.12;97406.09;5051270;28;20401;-79
2021/07/31 01:15:19;;;;;;;10.55;7.15;;;;;;;21.69;89.83;97406.50;5051301;28;20037;-78
2021/07/31 01:17:44;;;;;;;9.35;8.50;;;;;;;21.72;89.94;97397.38;5050533;28;20092;-79
2021/07/31 01:20:10;;;;;;;11.40;7.03;;;;;;;21.71;89.42;97387.41;5050885;28;20029;-78
2021/07/31 01:22:36;;;;;;;10.13;8.20;;;;;;;21.60;90.41;97402.41;5051709;28;20021;-79
2021/07/31 01:25:02;;;;;;;9.73;8.60;;;;;;;21.72;90.12;97391.00;5051729;28;20025;-79
2021/07/31 01:27:27;;;;;;;11.38;7.57;;;;;;;21.61;90.65;97381.75;5050026;28;20143;-79
2021/07/31 01:29:53;;;;;;;9.65;6.90;;;;;;;21.61;90.38;97390.09;5050116;28;20103;-79
2021/07/31 01:32:20;;;;;;;11.52;7.82;;;;;;;21.47;91.05;97376.81;5050440;28;20657;-79
2021/07/31 01:34:45;;;;;;;11.77;9.13;;;;;;;21.46;91.36;97383.56;5051722;28;20037;-79
2021/07/31 01:37:10;;;;;;;7.85;7.05;;;;;;;21.43;91.52;97383.50;5050306;28;20453;-79
2021/07/31 01:39:36;;;;;;;9.23;8.32;;;;;;;21.50;90.62;97381.63;5050435;28;20548;-80
2021/07/31 01:42:04;;;;;;;11.38;8.55;;;;;;;21.37;90.55;97363.56;5051183;28;20037;-77
2021/07/31 01:44:29;;;;;;;9.48;8.55;;;;;;;21.46;90.65;97378.00;5050361;28;20108;-79
2021/07/31 01:46:55;;;;;;;13.57;9.27;;;;;;;21.50;90.25;97352.97;5051878;28;20458;-78
2021/07/31 01:49:20;;;;;;;10.93;9.07;;;;;;;21.44;91.05;97348.94;5050843;28;20037;-79
2021/07/31 01:51:45;;;;;;;11.57;9.15;;;;;;;21.58;90.24;97360.25;5049976;28;20028;-79
2021/07/31 01:54:11;;;;;;;12.15;8.85;;;;;;;21.49;90.64;97365.31;5050109;28;20047;-78
2021/07/31 01:56:36;;;;;;;13.48;9.68;;;;;;;21.38;91.77;97353.25;5050715;28;20021;-79
2021/07/31 01:59:02;;;;;;;10.63;9.52;;;;;;;21.36;92.41;97357.22;5051218;28;20033;-78
2021/07/31 02:01:27;;;;;;;10.00;8.88;;;;;;;21.21;92.95;97337.94;5050989;28;20623;-79
2021/07/31 02:03:53;;;;;;;9.05;8.15;;;;;;;21.39;92.38;97364.03;5049544;28;20036;-79
2021/07/31 02:06:18;;;;;;;15.95;9.75;;;;;;;21.35;91.81;97352.84;5051102;28;20036;-78
2021/07/31 02:08:43;;;;;;;9.85;8.82;;;;;;;21.32;92.75;97375.88;5049337;28;20120;-78
2021/07/31 02:11:10;;;;;;;9.93;8.90;;;;;;;21.20;92.89;97362.22;5049497;28;20119;-81
2021/07/31 02:13:36;;;;;;;16.05;9.82;;;;;;;21.29;93.13;97371.06;5051248;28;20143;-79
2021/07/31 02:16:02;;;;;;;10.25;8.35;;;;;;;21.36;92.45;97375.91;5049391;28;20485;-79
2021/07/31 02:18:27;;;;;;;12.80;8.90;;;;;;;21.27;92.82;97375.38;5049369;28;20492;-79
2021/07/31 02:20:52;;;;;;;10.65;8.85;;;;;;;21.34;92.72;97384.63;5049553;28;20487;-79
2021/07/31 02:23:18;;;;;;;11.23;8.68;;;;;;;21.31;92.52;97377.03;5050701;28;20037;-78
2021/07/31 02:25:43;;;;;;;9.43;8.43;;;;;;;21.07;93.18;97373.91;5050204;28;20099;-79
2021/07/31 02:28:09;;;;;;;11.13;7.53;;;;;;;21.15;93.08;97370.06;5049480;28;20032;-81
2021/07/31 02:30:34;;;;;;;10.05;8.73;;;;;;;20.81;95.67;97364.44;5050795;28;20098;-79
2021/07/31 02:33:00;;;;;;;9.88;8.02;;;;;;;20.70;96.65;97371.06;5049429;28;20186;-80
2021/07/31 02:35:26;;;;;;;10.48;9.18;;;;;;;20.84;95.34;97365.66;5049465;28;20108;-79
2021/07/31 02:37:51;;;;;;;9.98;8.25;;;;;;;20.76;96.08;97375.09;5049922;28;20025;-80
2021/07/31 02:40:17;;;;;;;9.10;8.20;;;;;;;20.67;96.40;97363.47;5049283;28;20024;-80
2021/07/31 02:42:42;;;;;;;9.75;8.15;;;;;;;20.66;96.34;97359.88;5048905;28;20037;-79
2021/07/31 02:45:07;;;;;;;11.40;9.55;;;;;;;;;;5050408;28;20037;-80
2021/07/31 02:47:33;;;;;;;12.57;8.85;;;;;;;20.50;97.64;97358.44;5050552;28;20512;-80
2021/07/31 02:49:58;;;;;;;10.30;9.23;;;;;;;20.55;97.80;97366.47;5049142;28;20393;-79
2021/07/31 02:52:24;;;;;;;10.60;9.55;;;;;;;20.38;98.94;97364.22;5050146;28;20020;-79
2021/07/31 02:54:50;;;;;;;9.63;8.68;;;;;;;20.44;97.94;97365.50;5048799;28;20477;-80
2021/07/31 02:57:15;;;;;;;11.35;9.13;;;;;;;20.22;98.31;97348.47;5051954;28;20021;-78
2021/07/31 02:59:41;;;;;;;12.20;7.85;;;;;;;20.39;96.98;97369.41;5050270;28;20432;-78
2021/07/31 03:02:07;;;;;;;11.70;8.73;;;;;;;20.42;96.93;97365.88;5049206;28;20493;-80
2021/07/31 03:04:33;;;;;;;8.32;7.53;;;;;;;20.58;95.54;97360.94;5049085;28;20016;-78
2021/07/31 03:06:58;;;;;;;10.63;8.00;;;;;;;20.53;95.85;97363.25;5050155;28;20400;-79
2021/07/31 03:09:23;;;;;;;12.25;9.10;;;;;;;20.61;95.38;97362.19;5050248;28;20029;-79
2021/07/31 03:11:49;;;;;;;10.10;9.10;;;;;;;20.74;94.23;97364.34;5048776;28;20500;-79
2021/07/31 03:14:14;;;;;;;11.80;9.07;;;;;;;;;;5050180;28;20029;-79
2021/07/31 03:16:40;;;;;;;12.55;8.80;;;;;;;20.49;95.67;97371.53;5050505;28;20036;-80
2021/07/31 03:19:05;;;;;;;10.05;9.05;;;;;;;20.46;96.36;97386.16;5050468;28;20029;-80
2021/07/31 03:21:31;;;;;;;9.18;8.10;;;;;;;20.29;97.03;97370.03;5049932;28;20570;-80
2021/07/31 03:23:56;;;;;;;11.30;9.13;;;;;;;20.28;97.54;97374.78;5048775;28;20473;-82
2021/07/31 03:26:23;;;;;;;9.23;8.18;;;;;;;20.25;97.85;97380.25;5048654;28;20056;-79
2021/07/31 03:28:48;;;;;;;19.90;10.07;;;;;;;20.26;98.12;97393.81;5050289;28;20033;-79
2021/07/31 03:31:21;;;;;;;10.88;8.63;;;;;;;20.31;98.41;97378.78;5048447;28;20129;-81
2021/07/31 03:33:47;;;;;;;11.82;9.07;;;;;;;20.33;97.57;97381.22;5048953;28;20048;-79
2021/07/31 03:36:12;;;;;;;10.77;8.05;;;;;;;20.37;97.33;97370.94;5049898;28;20540;-79
2021/07/31 03:38:38;;;;;;;11.70;8.13;;;;;;;20.48;96.35;97371.91;5052894;28;20124;-80
2021/07/31 03:41:03;;;;;;;10.88;8.52;;;;;;;20.46;95.63;97371.47;5052517;28;20016;-79
2021/07/31 03:43:28;;;;;;;12.30;9.20;;;;;;;20.34;96.01;97352.22;5052372;28;20036;-80
2021/07/31 03:45:54;;;;;;;14.43;8.98;;;;;;;20.39;96.09;97371.38;5053754;28;20033;-81
2021/07/31 03:48:19;;;;;;;8.18;7.38;;;;;;;20.61;94.63;97384.41;5052338;28;20029;-80
2021/07/31 03:50:45;;;;;;;8.52;7.63;;;;;;;20.50;95.29;97373.13;5053774;28;20043;-79
2021/07/31 03:53:10;;;;;;;8.32;7.53;;;;;;;20.41;95.77;97369.81;5053649;28;20025;-80
2021/07/31 03:55:35;;;;;;;10.40;7.65;;;;;;;20.58;95.21;97382.41;5053525;28;20029;-79
2021/07/31 03:58:02;;;;;;;9.00;8.10;;;;;;;20.49;95.42;97384.59;5052516;28;20037;-80
2021/07/31 04:00:28;;;;;;;10.95;8.68;;;;;;;20.53;95.83;97383.50;5052281;28;20385;-80
2021/07/31 04:02:53;;;;;;;11.98;9.38;;;;;;;20.48;96.45;97383.84;5052382;28;20029;-81
2021/07/31 04:05:19;;;;;;;12.57;9.65;;;;;;;20.21;98.18;97388.53;5053858;28;20028;-80
2021/07/31 04:07:44;;;;;;;11.43;9.60;;;;;;;20.22;98.17;97386.56;5052157;28;20028;-81
2021/07/31 04:10:10;;;;;;;9.82;8.85;;;;;;;20.31;97.51;97381.56;5051970;28;20036;-80
2021/07/31 04:12:36;;;;;;;11.65;9.18;;;;;;;20.40;96.53;97375.75;5051928;28;20658;-79
2021/07/31 04:15:01;;;;;;;10.75;9.30;;;;;;;20.50;95.72;97380.66;5053211;28;20029;-81
2021/07/31 04:17:27;;;;;;;10.23;8.13;;;;;;;20.49;95.79;97390.97;5051961;28;20040;-79
2021/07/31 04:19:52;;;;;;;13.45;8.98;;;;;;;20.50;94.73;97380.66;5052023;28;20503;-81
2021/07/31 04:22:18;;;;;;;11.00;8.10;;;;;;;20.56;94.50;97377.19;5052938;28;20420;-79
2021/07/31 04:24:43;;;;;;;9.15;8.18;;;;;;;20.48;93.76;97383.03;5053004;28;20495;-79
2021/07/31 04:27:08;;;;;;;11.77;7.05;;;;;;;20.62;92.57;97394.34;5051712;28;20112;-79
2021/07/31 04:29:34;;;;;;;11.43;7.43;;;;;;;20.66;92.44;97386.88;5053130;28;20025;-81
2021/07/31 04:31:59;;;;;;;8.55;7.65;;;;;;;20.73;92.45;97390.56;5052888;28;20044;-79
2021/07/31 04:34:29;;;;;;;10.63;8.00;;;;;;;20.75;91.96;97381.84;5051500;28;20090;-79
2021/07/31 04:36:55;;;;;;;9.13;8.07;;;;;;;20.83;91.24;97394.69;5051324;28;20025;-80
2021/07/31 04:39:20;;;;;;;12.43;8.60;;;;;;;20.95;90.72;97382.50;5051329;28;20105;-78
2021/07/31 04:41:45;;;;;;;11.20;7.68;;;;;;;21.07;89.09;97390.63;5051345;28;20541;-79
2021/07/31 04:44:11;;;;;;;11.85;8.88;;;;;;;21.22;88.37;97375.72;5051236;28;20017;-80
2021/07/31 04:46:36;;;;;;;16.38;8.43;;;;;;;21.11;87.83;97366.47;5051297;28;20588;-80
2021/07/31 04:49:02;;;;;;;10.57;7.68;;;;;;;20.88;88.99;97374.88;5051063;28;20025;-79
2021/07/31 04:51:27;;;;;;;9.48;6.93;;;;;;;21.32;85.13;97388.97;5050902;28;20032;-80
2021/07/31 04:53:53;;;;;;;9.57;6.30;;;;;;;21.65;82.63;97379.78;5051377;28;20108;-81
2021/07/31 04:56:18;;;;;;;8.77;6.57;;;;;;;21.21;82.92;97362.97;5052335;28;20041;-78
2021/07/31 04:58:43;;;;;;;12.10;5.43;;;;;;;21.58;82.73;97379.72;5052567;28;20448;-79
2021/07/31 05:01:09;;;;;;;8.93;7.28;;;;;;;21.76;82.83;97384.31;5051248;28;20549;-79
2021/07/31 05:03:34;;;;;;;7.70;6.28;;;;;;;21.78;81.73;97383.91;5052506;28;20112;-78
2021/07/31 05:06:04;;;;;;;8.30;6.07;;;;;;;21.92;81.36;97388.84;5051858;28;20033;-78
2021/07/31 05:08:30;;;;;;;6.82;6.15;;;;;;;22.07;80.67;97390.59;5052420;28;20029;-80
2021/07/31 05:10:55;;;;;;;7.10;5.75;;;;;;;22.21;79.59;97385.94;5051324;28;20114;-79
2021/07/31 05:13:20;;;;;;;8.02;6.00;;;;;;;22.43;78.46;97393.28;5052236;28;20032;-80
2021/07/31 05:15:47;;;;;;;9.32;5.63;;;;;;;22.64;77.73;97403.00;5053254;28;20040;-79
2021/07/31 05:18:13;;;;;;;7.43;6.05;;;;;;;22.73;76.92;97395.94;5054096;28;20029;-79
2021/07/31 05:20:44;;;;;;;5.97;5.47;;;;;;;23.07;76.06;97404.88;5053309;28;20577;-79
2021/07/31 05:23:10;;;;;;;9.35;6.03;;;;;;;23.03;75.87;97406.84;5051988;28;20025;-79
2021/07/31 05:25:35;;;;;;;7.82;5.75;;;;;;;23.02;75.75;97390.50;5051590;28;20083;-80
2021/07/31 05:28:01;;;;;;;10.25;5.63;;;;;;;22.84;77.40;97401.56;5051682;28;20036;-80
2021/07/31 05:30:26;;;;;;;9.27;5.60;;;;;;;23.15;76.40;97400.94;5050391;28;20045;-80
2021/07/31 05:32:52;;;;;;;6.43;5.72;;;;;;;23.27;75.91;97391.44;5051374;28;20043;-80
2021/07/31 05:35:18;;;;;;;7.70;6.05;;;;;;;22.84;76.69;97384.81;5051688;28;20025;-80
2021/07/31 05:37:43;;;;;;;6.20;5.60;;;;;;;22.89;76.90;97387.25;5050226;28;20032;-80
2021/07/31 05:40:10;;;;;;;6.55;5.95;;;;;;;22.85;76.90;97387.22;5050039;28;20091;-80
2021/07/31 05:42:35;;;;;;;6.22;5.63;;;;;;;22.95;76.40;97391.28;5050490;28;20115;-80
2021/07/31 05:45:03;;;;;;;10.05;6.05;;;;;;;22.93;76.41;97391.66;5049973;28;21512;-80
2021/07/31 05:47:29;;;;;;;9.82;6.28;;;;;;;23.17;75.57;97379.03;5051107;28;20029;-80
2021/07/31 05:49:59;;;;;;;8.05;5.78;;;;;;;23.21;75.38;97382.63;5050319;28;20087;-80
2021/07/31 05:52:26;;;;;;;7.53;5.78;;;;;;;23.16;74.57;97357.88;5051907;28;20021;-80
2021/07/31 05:54:56;;;;;;;6.47;5.80;;;;;;;23.40;73.87;97373.16;5050103;28;20040;-80
2021/07/31 05:57:21;;;;;;;9.00;6.47;;;;;;;23.55;73.58;97385.19;5047262;28;20029;-80
2021/07/31 05:59:47;;;;;;;7.45;5.53;;;;;;;23.61;73.27;97389.19;5050218;28;20378;-80
2021/07/31 06:02:13;;;;;;;8.55;6.30;;;;;;;23.69;72.47;97396.38;5051492;28;20025;-81
2021/07/31 06:04:40;;;;;;;8.50;5.82;;;;;;;23.60;72.72;97393.97;5050852;28;20027;-80
2021/07/31 06:07:07;;;;;;;6.68;5.60;;;;;;;23.74;72.01;97393.22;5049729;28;20040;-80
2021/07/31 06:09:39;;;;;;;7.97;5.95;;;;;;;24.02;71.33;97401.66;5051153;28;20032;-80
2021/07/31 06:12:06;;;;;;;13.05;6.50;;;;;;;23.94;71.34;97405.63;5050647;28;20471;-79
2021/07/31 06:14:40;;;;;;;9.32;5.90;;;;;;;23.98;71.78;97404.44;5049826;28;20393;-80
2021/07/31 06:17:06;;;;;;;8.30;5.88;;;;;;;24.17;69.81;97399.69;5043570;28;20029;-80
2021/07/31 06:19:32;;;;;;;5.68;5.07;;;;;;;24.25;69.42;97406.88;5051229;28;20112;-78
2021/07/31 06:21:59;;;;;;;6.47;5.25;;;;;;;24.16;70.26;97404.50;5050664;28;20079;-79
2021/07/31 06:24:26;;;;;;;5.85;4.53;;;;;;;24.17;69.27;97403.28;5052227;28;20028;-80
2021/07/31 06:26:52;;;;;;;8.90;5.40;;;;;;;24.11;69.67;97402.09;5051126;28;20551;-79
2021/07/31 06:29:17;;;;;;;4.72;4.30;;;;;;;24.74;67.57;97403.28;5051121;28;20037;-79
2021/07/31 06:31:42;;;;;;;6.80;5.05;;;;;;;24.72;66.88;97397.28;5050684;28;20049;-79
2021/07/31 06:34:08;;;;;;;8.00;5.25;;;;;;;24.62;67.50;97406.50;5050438;28;20029;-79
2021/07/31 06:36:34;;;;;;;8.30;5.82;;;;;;;24.73;66.37;97393.28;5049058;28;20401;-79
2021/07/31 06:39:01;;;;;;;5.40;4.68;;;;;;;24.96;65.61;97394.47;5050916;28;20028;-79
2021/07/31 06:41:27;;;;;;;5.68;4.70;;;;;;;25.06;64.18;97406.81;5052242;28;20089;-78
2021/07/31 06:43:52;;;;;;;6.65;4.65;;;;;;;25.20;64.52;97395.59;5051212;28;20068;-79
2021/07/31 06:46:24;;;;;;;5.10;3.85;;;;;;;25.62;62.75;97396.66;5051260;28;20204;-79
2021/07/31 06:48:50;;;;;;;6.85;4.00;;;;;;;25.37;63.12;97391.94;5051963;28;20025;-78
2021/07/31 06:51:17;;;;;;;5.53;4.40;;;;;;;25.32;62.60;97391.56;5049749;28;20028;-78
2021/07/31 06:53:42;;;;;;;6.07;4.35;;;;;;;25.08;63.01;97393.25;5049531;28;20397;-78
2021/07/31 06:56:08;;;;;;;5.43;4.25;;;;;;;25.04;62.78;97392.44;5049344;28;20029;-79
2021/07/31 06:58:33;;;;;;;8.07;4.47;;;;;;;25.23;62.71;97386.41;5050325;28;20035;-78
2021/07/31 07:00:59;;;;;;;4.85;3.88;;;;;;;25.76;60.35;97394.56;5050612;28;20033;-78
2021/07/31 07:03:24;;;;;;;8.45;4.22;;;;;;;25.78;58.79;97382.97;5050605;28;20074;-79
2021/07/31 07:05:49;;;;;;;5.20;4.35;;;;;;;25.73;58.81;97374.97;5049328;28;20032;-78
2021/07/31 07:08:15;;;;;;;7.80;4.03;;;;;;;25.87;58.96;97397.34;5049054;28;20481;-78
2021/07/31 07:10:40;;;;;;;6.78;3.58;;;;;;;26.41;57.60;97385.34;5048681;28;20142;-78
2021/07/31 07:13:06;;;;;;;5.18;3.67;;;;;;;26.42;57.33;97392.56;5054521;28;20036;-78
2021/07/31 07:15:31;;;;;;;7.78;5.00;;;;;;;26.05;58.08;97395.22;5054515;28;20036;-78
2021/07/31 07:17:58;;;;;;;22.50;19.13;;;;;;;26.42;56.25;97397.34;5053209;28;20029;-78
2021/07/31 07:20:25;;;;;;;7.55;4.60;;;;;;;26.34;56.03;97401.44;5054805;28;20485;-78
2021/07/31 07:22:51;;;;;;;3.58;3.28;;;;;;;25.62;57.83;97393.88;5054708;28;20481;-78
2021/07/31 07:25:16;;;;;;;29.13;22.88;;;;;;;25.65;58.05;97399.47;5053542;28;20032;-78
2021/07/31 07:27:42;;;;;;;10.07;5.57;;;;;;;25.89;57.22;97400.50;5053817;28;20471;-79
2021/07/31 07:30:08;;;;;;;3.47;3.17;;;;;;;25.80;58.06;97403.78;5054062;28;20025;-78
2021/07/31 07:32:34;;;;;;;7.30;4.40;;;;;;;25.95;58.08;97396.06;5052588;28;20052;-78
2021/07/31 07:35:00;;;;;;;13.40;9.05;;;;;;;26.19;58.18;97395.13;5054159;28;20068;-78
2021/07/31 07:37:26;;;;;;;7.05;3.90;;;;;;;26.56;56.37;97392.41;5053008;28;20049;-78
2021/07/31 07:39:51;;;;;;;4.13;3.00;;;;;;;25.56;58.74;97379.50;5054048;28;20433;-78
2021/07/31 07:42:16;;;;;;;4.28;3.83;;;;;;;25.62;58.66;97380.66;5054254;28;20021;-78
2021/07/31 07:44:42;;;;;;;7.65;4.32;;;;;;;25.59;58.81;97372.28;5053938;28;20118;-78
2021/07/31 07:47:09;;;;;;;4.65;3.35;;;;;;;26.05;57.47;97367.16;5053279;28;20045;-77
2021/07/31 07:49:36;;;;;;;3.72;3.30;;;;;;;27.13;54.55;97363.78;5054508;28;20053;-78
2021/07/31 07:52:02;;;;;;;5.47;3.10;;;;;;;27.43;52.70;97344.19;5054207;28;20067;-78
2021/07/31 07:54:30;;;;;;;6.22;3.20;;;;;;;27.21;53.69;97356.09;5057193;28;20052;-78
2021/07/31 07:56:56;;;;;;;8.32;3.15;;;;;;;26.77;54.88;97352.13;5055837;28;20082;-78
2021/07/31 07:59:21;;;;;;;7.68;4.00;;;;;;;27.76;51.63;97355.78;5053548;28;20108;-77
2021/07/31 08:01:47;;;;;;;5.32;3.22;;;;;;;27.64;51.49;97359.97;5053706;28;20148;-78
2021/07/31 08:04:13;;;;;;;9.45;3.47;;;;;;;28.48;48.53;97345.84;5051810;28;20535;-79
2021/07/31 08:06:38;;;;;;;6.75;3.83;;;;;;;28.61;48.30;97349.63;5052076;28;20028;-77
2021/07/31 08:09:04;;;;;;;4.78;3.67;;;;;;;29.86;45.24;97360.06;5052537;28;20100;-77
2021/07/31 08:11:29;;;;;;;3.33;3.03;;;;;;;30.39;44.30;97361.63;5053132;28;20446;-77
2021/07/31 08:13:55;;;;;;;5.28;3.65;;;;;;;30.97;42.86;97377.53;5053116;28;20440;-77
2021/07/31 08:16:20;;;;;;;5.70;3.28;;;;;;;32.20;39.58;97378.00;5051790;28;20437;-78
2021/07/31 08:18:46;;;;;;;5.40;2.78;;;;;;;32.19;39.38;97367.94;5051600;28;20013;-77
2021/07/31 08:21:11;;;;;;;6.20;3.08;;;;;;;32.02;39.74;97386.22;5053124;28;20063;-77
2021/07/31 08:23:36;;;;;;;4.97;2.78;;;;;;;30.39;42.76;97376.56;5050932;28;20132;-76
2021/07/31 08:26:04;;;;;;;11.82;3.00;;;;;;;29.62;45.00;97371.44;5051633;28;20369;-76
2021/07/31 08:28:29;;;;;;;6.22;3.42;;;;;;;28.63;47.05;97373.31;5053135;28;20029;-76
2021/07/31 08:30:55;;;;;;;3.95;3.40;;;;;;;27.62;49.40;97368.84;5056908;28;20500;-76
2021/07/31 08:33:23;;;;;;;5.78;3.67;;;;;;;27.22;50.71;97383.78;5052689;28;20025;-78
2021/07/31 08:35:50;;;;;;;8.18;3.60;;;;;;;28.22;48.50;97388.91;5051584;28;20028;-77
2021/07/31 08:38:15;;;;;;;4.43;3.38;;;;;;;28.74;47.09;97408.97;5052801;28;20017;-76
2021/07/31 08:40:42;;;;;;;4.57;3.45;;;;;;;28.63;48.07;97426.81;5051143;28;20418;-76
2021/07/31 08:43:09;;;;;;;3.65;2.80;;;;;;;28.94;48.04;97460.53;5050954;28;20024;-78
2021/07/31 08:45:34;;;;;;;4.70;3.17;;;;;;;28.55;48.54;97492.91;5051507;28;20052;-77
2021/07/31 08:48:00;;;;;;;5.10;3.67;;;;;;;28.27;50.18;97521.47;5050826;28;20485;-77
2021/07/31 08:50:26;;;;;;;6.35;2.78;;;;;;;27.09;52.19;97517.53;5052527;28;20033;-78
2021/07/31 08:52:56;;;;;;;3.95;2.13;;;;;;;25.77;55.20;97479.47;5052799;28;20028;-79
2021/07/31 08:55:21;;;;;;;3.55;1.98;;;;;;;25.01;57.70;97464.03;5051114;28;20496;-80
2021/07/31 08:57:46;;;;;;;8.82;2.45;;;;;;;24.43;59.57;97447.63;5051308;28;20116;-82
2021/07/31 09:00:12;;;;;;;5.03;1.88;;;;;;;23.90;61.49;97455.13;5055792;28;20025;-81
2021/07/31 09:02:43;;;;;;;4.20;1.67;;;;;;;24.07;61.07;97462.75;5050902;28;20035;-80
2021/07/31 09:05:11;;;;;;;1.95;1.10;;;;;;;23.46;63.83;97466.53;5052896;28;20405;-81
2021/07/31 09:07:37;;;;;;;2.50;1.60;;;;;;;23.60;62.84;97462.97;5051147;28;20033;-80
2021/07/31 09:10:21;;;;;;;4.82;1.73;;;;;;;23.53;63.34;97477.72;5050776;28;20055;-79
2021/07/31 09:12:58;;;;;;;5.28;2.35;;;;;;;24.05;61.31;97451.16;5052311;28;20477;-79
2021/07/31 09:15:38;;;;;;;3.00;2.05;;;;;;;25.75;56.16;97449.03;5052523;28;20509;-80
2021/07/31 09:18:20;;;;;;;2.50;1.70;;;;;;;26.36;51.59;97457.94;5052640;28;20478;-79
2021/07/31 09:21:04;;;;;;;7.10;5.35;;;;;;;27.05;50.26;97458.56;5050973;28;20036;-78
2021/07/31 09:23:47;;;;;;;16.95;10.95;;;;;;;28.79;44.67;97462.00;5050732;28;20033;-78
2021/07/31 09:26:16;;;;;;;4.20;2.13;;;;;;;29.16;43.53;97473.03;5051027;28;20028;-78
2021/07/31 09:28:43;;;;;;;14.23;10.38;;;;;;;28.89;44.59;97475.88;5050558;28;19912;-77
2021/07/31 09:31:13;;;;;;;3.85;2.55;;;;;;;27.85;47.23;97494.63;5051614;28;20040;-77
2021/07/31 09:33:48;;;;;;;3.45;2.10;;;;;;;26.81;50.90;97498.13;5050534;28;20029;-79
2021/07/31 09:36:14;;;;;;;6.17;4.47;;;;;;;24.95;56.53;97498.44;5050492;28;20021;-80
2021/07/31 09:38:43;;;;;;;3.10;1.63;;;;;;;24.95;57.16;97501.25;5051950;28;20020;-78
2021/07/31 09:41:15;;;;;;;1.77;1.20;;;;;;;24.45;58.85;97492.81;5050170;28;20025;-79
2021/07/31 09:43:41;;;;;;;5.82;1.63;;;;;;;24.39;59.55;97502.78;5050287;28;20461;-78
2021/07/31 09:46:44;;;;;;;3.13;1.60;;;;;;;24.31;59.85;97492.78;5050608;28;20029;-79
2021/07/31 09:49:12;;;;;;;1.73;1.52;;;;;;;24.65;58.24;97484.03;5050180;28;20112;-79
2021/07/31 09:51:40;;;;;;;1.60;1.50;;;;;;;25.37;57.00;97483.56;5051641;28;20028;-79
2021/07/31 09:54:09;;;;;;;1.95;1.70;;;;;;;26.20;55.23;97478.06;5050530;28;20033;-80
2021/07/31 09:56:42;;;;;;;1.25;1.02;;;;;;;27.22;51.08;97473.66;5050411;28;20116;-79
2021/07/31 09:59:09;;;;;;;1.73;1.27;;;;;;;27.55;50.43;97475.72;5051714;28;20033;-79
2021/07/31 10:01:37;;;;;;;2.30;1.25;;;;;;;27.55;50.30;97472.94;5049532;28;20030;-78
2021/07/31 10:04:04;;;;;;;2.25;1.27;;;;;;;26.61;51.72;97479.00;5051278;28;20033;-79
2021/07/31 10:06:31;;;;;;;3.33;1.75;;;;;;;25.64;54.26;97472.72;5050692;28;20032;-79
2021/07/31 10:08:58;;;;;;;2.30;1.40;;;;;;;25.66;53.94;97462.69;5051009;28;20037;-80
2021/07/31 10:11:24;;;;;;;2.00;1.35;;;;;;;25.39;54.34;97461.56;5053484;28;20398;-78
2021/07/31 10:13:50;;;;;;;4.03;1.65;;;;;;;26.24;52.33;97464.81;5050590;28;20024;-79
2021/07/31 10:16:16;;;;;;;2.35;1.52;;;;;;;26.94;50.34;97451.47;5051380;28;20056;-79
2021/07/31 10:19:05;;;;;;;1.48;1.38;;;;;;;28.09;47.54;97471.06;5052208;28;20112;-79
2021/07/31 10:21:34;;;;;;;3.67;1.33;;;;;;;28.36;46.50;97459.00;5038515;28;20037;-79
2021/07/31 10:24:03;;;;;;;2.55;1.50;;;;;;;26.52;50.16;97463.81;5056752;28;20143;-79
2021/07/31 10:26:30;;;;;;;13.13;2.05;;;;;;;26.48;50.79;97446.22;5056571;28;20033;-78
2021/07/31 10:29:27;;;;;;;7.82;2.53;;;;;;;26.42;51.12;97431.03;5057660;28;20025;-79
2021/07/31 10:31:54;;;;;;;2.03;1.70;;;;;;;27.74;47.83;97465.06;5050264;28;20045;-79
2021/07/31 10:34:48;;;;;;;2.28;1.50;;;;;;;27.51;48.38;97458.09;5049642;28;20037;-80
2021/07/31 10:37:32;;;;;;;4.97;1.50;;;;;;;26.85;50.42;97460.38;5051398;28;20025;-79
2021/07/31 10:40:05;;;;;;;1.75;1.35;;;;;;;26.66;51.10;97443.28;5050257;28;20040;-79
2021/07/31 10:42:52;;;;;;;6.55;2.42;;;;;;;27.37;49.52;97435.78;5051082;28;20041;-80
2021/07/31 10:45:22;;;;;;;4.55;1.40;;;;;;;27.37;49.54;97443.41;5049632;28;20033;-79
2021/07/31 10:47:48;;;;;;;2.70;1.65;;;;;;;28.25;48.37;97433.06;5050645;28;20021;-79
2021/07/31 10:50:26;;;;;;;5.50;1.52;;;;;;;28.92;46.69;97432.78;5052136;28;20055;-79
2021/07/31 10:52:57;;;;;;;3.30;1.90;;;;;;;28.86;46.13;97423.22;5050631;28;20118;-79
2021/07/31 10:55:46;;;;;;;8.90;2.45;;;;;;;29.06;46.60;97440.19;5049313;28;20029;-78
2021/07/31 10:58:16;;;;;;;6.68;1.63;;;;;;;28.07;48.88;97414.41;5048951;28;20063;-78
2021/07/31 11:00:46;;;;;;;3.55;2.05;;;;;;;28.01;49.03;97423.72;5049796;28;20075;-79
2021/07/31 11:03:15;;;;;;;3.65;2.20;;;;;;;28.54;47.72;97429.38;5051440;28;20021;-79
2021/07/31 11:05:49;;;;;;;5.82;2.28;;;;;;;26.90;52.09;97422.63;5051684;28;20362;-78
2021/07/31 11:08:16;;;;;;;4.90;1.87;;;;;;;27.70;50.15;97402.47;5049886;28;20029;-80
2021/07/31 11:10:43;;;;;;;3.97;1.70;;;;;;;27.96;50.08;97419.38;5050667;28;20036;-78
2021/07/31 11:13:32;;;;;;;2.90;1.70;;;;;;;27.44;49.98;97416.03;5049325;28;20031;-79
2021/07/31 11:16:04;;;;;;;4.10;2.15;;;;;;;26.96;52.30;97415.34;5048839;28;20132;-78
2021/07/31 11:18:39;;;;;;;7.22;1.90;;;;;;;26.95;52.27;97414.53;5050057;28;20036;-81
2021/07/31 11:21:14;;;;;;;4.97;2.00;;;;;;;26.07;53.68;97399.19;5050730;28;20473;-81
2021/07/31 11:23:41;;;;;;;2.53;1.87;;;;;;;26.54;52.58;97402.47;5049748;28;20028;-80
2021/07/31 11:26:07;;;;;;;3.10;1.83;;;;;;;27.00;51.46;97402.06;5050909;28;20432;-81
2021/07/31 11:28:33;;;;;;;2.08;1.88;;;;;;;27.40;51.55;97398.41;5050403;28;20089;-78
2021/07/31 11:30:58;;;;;;;3.00;1.70;;;;;;;27.82;49.20;97394.25;5049144;28;20497;-78
2021/07/31 11:33:26;;;;;;;3.67;1.67;;;;;;;27.65;49.49;97398.13;5049488;28;20039;-78